createdAt,value
2018-06-22T00:00:33.393Z,0.00
2018-06-22T00:01:33.379Z,0.00
2018-06-22T00:02:33.368Z,0.00
2018-06-22T00:03:33.360Z,0.00
2018-06-22T00:04:33.354Z,0.00
2018-06-22T00:05:33.342Z,0.00
2018-06-22T00:06:33.331Z,0.00
2018-06-22T00:07:33.322Z,0.00
2018-06-22T00:08:33.313Z,0.00
2018-06-22T00:09:33.303Z,0.00
2018-06-22T00:10:33.293Z,0.00
2018-06-22T00:11:33.284Z,0.00
2018-06-22T00:12:33.274Z,0.00
2018-06-22T00:13:33.266Z,0.00
2018-06-22T00:14:33.260Z,0.00
2018-06-22T00:15:33.247Z,0.00
2018-06-22T00:16:33.239Z,0.00
2018-06-22T00:17:33.229Z,0.00
2018-06-22T00:18:33.220Z,0.00
2018-06-22T00:19:33.209Z,0.00
2018-06-22T00:20:33.200Z,0.00
2018-06-22T00:21:33.203Z,0.00
2018-06-22T00:22:33.191Z,0.00
2018-06-22T00:23:33.172Z,0.00
2018-06-22T00:24:33.163Z,0.00
2018-06-22T00:25:33.155Z,0.00
2018-06-22T00:26:33.144Z,0.00
2018-06-22T00:27:33.138Z,0.00
2018-06-22T00:28:33.128Z,0.00
2018-06-22T00:29:33.117Z,0.00
2018-06-22T00:31:33.099Z,0.00
2018-06-22T00:32:33.090Z,0.00
2018-06-22T00:33:33.079Z,0.00
2018-06-22T00:34:33.072Z,0.00
2018-06-22T00:35:33.060Z,0.00
2018-06-22T00:36:33.061Z,0.00
2018-06-22T00:37:33.041Z,0.00
2018-06-22T00:38:33.033Z,0.00
2018-06-22T00:39:33.022Z,0.00
2018-06-22T00:40:33.014Z,0.00
2018-06-22T00:41:33.005Z,0.00
2018-06-22T00:42:32.994Z,0.00
2018-06-22T00:43:32.995Z,0.00
2018-06-22T00:44:32.975Z,0.00
2018-06-22T00:45:32.967Z,0.00
2018-06-22T00:46:32.957Z,0.00
2018-06-22T00:47:32.947Z,0.00
2018-06-22T00:48:32.940Z,0.00
2018-06-22T00:49:32.929Z,0.00
2018-06-22T00:50:32.919Z,0.00
2018-06-22T00:51:32.914Z,0.00
2018-06-22T00:52:32.901Z,0.00
2018-06-22T00:53:32.896Z,0.00
2018-06-22T00:54:32.883Z,0.00
2018-06-22T00:55:32.883Z,0.00
2018-06-22T00:56:32.873Z,0.00
2018-06-22T00:57:32.859Z,0.00
2018-06-22T00:58:32.844Z,0.00
2018-06-22T00:59:32.835Z,0.00
2018-06-22T01:00:32.825Z,0.00
2018-06-22T01:01:32.816Z,0.00
2018-06-22T01:02:32.806Z,0.00
2018-06-22T01:03:32.799Z,0.00
2018-06-22T01:04:32.790Z,0.00
2018-06-22T01:05:32.778Z,0.00
2018-06-22T01:06:32.768Z,0.00
2018-06-22T01:07:32.760Z,0.00
2018-06-22T01:08:32.749Z,0.00
2018-06-22T01:09:32.740Z,0.00
2018-06-22T01:10:32.733Z,0.00
2018-06-22T01:11:32.721Z,0.00
2018-06-22T01:12:32.713Z,0.00
2018-06-22T01:13:32.702Z,0.00
2018-06-22T01:14:32.692Z,0.00
2018-06-22T01:15:32.688Z,0.00
2018-06-22T01:16:32.676Z,0.00
2018-06-22T01:17:32.666Z,0.00
2018-06-22T01:18:32.856Z,0.00
2018-06-22T01:19:32.649Z,0.00
2018-06-22T01:20:32.637Z,0.00
2018-06-22T01:21:32.628Z,0.00
2018-06-22T01:22:32.616Z,0.00
2018-06-22T01:23:32.809Z,0.00
2018-06-22T01:24:32.597Z,0.00
2018-06-22T01:25:32.588Z,0.00
2018-06-22T01:26:32.577Z,0.00
2018-06-22T01:27:32.569Z,0.00
2018-06-22T01:28:32.558Z,0.00
2018-06-22T01:29:32.549Z,0.00
2018-06-22T01:30:32.540Z,0.00
2018-06-22T01:31:32.529Z,0.00
2018-06-22T01:32:32.521Z,0.00
2018-06-22T01:33:32.510Z,0.00
2018-06-22T01:34:32.500Z,0.00
2018-06-22T01:35:32.492Z,0.00
2018-06-22T01:36:32.684Z,0.00
2018-06-22T01:37:32.476Z,0.00
2018-06-22T01:38:32.461Z,0.00
2018-06-22T01:39:32.452Z,0.00
2018-06-22T01:40:32.443Z,0.00
2018-06-22T01:41:32.435Z,0.00
2018-06-22T01:42:32.423Z,0.00
2018-06-22T01:43:32.415Z,0.00
2018-06-22T01:44:32.405Z,0.00
2018-06-22T01:45:32.599Z,0.00
2018-06-22T01:46:32.387Z,0.00
2018-06-22T01:47:32.377Z,0.00
2018-06-22T01:48:32.368Z,0.00
2018-06-22T01:49:32.357Z,0.00
2018-06-22T01:50:32.346Z,0.00
2018-06-22T01:51:32.337Z,0.00
2018-06-22T01:52:32.328Z,0.00
2018-06-22T01:53:32.319Z,0.00
2018-06-22T01:54:32.310Z,0.00
2018-06-22T01:55:32.300Z,0.00
2018-06-22T01:56:32.289Z,0.00
2018-06-22T01:57:32.282Z,0.00
2018-06-22T01:58:32.270Z,0.00
2018-06-22T01:59:32.262Z,0.00
2018-06-22T02:00:32.253Z,0.00
2018-06-22T02:01:32.243Z,0.00
2018-06-22T02:02:32.232Z,0.00
2018-06-22T02:03:32.224Z,0.00
2018-06-22T02:04:32.215Z,0.00
2018-06-22T02:05:32.205Z,0.00
2018-06-22T02:06:32.195Z,0.00
2018-06-22T02:07:32.184Z,0.00
2018-06-22T02:08:32.175Z,0.00
2018-06-22T02:09:32.168Z,0.00
2018-06-22T02:10:32.156Z,0.00
2018-06-22T02:11:32.154Z,0.00
2018-06-22T02:12:32.141Z,0.00
2018-06-22T02:13:32.130Z,0.00
2018-06-22T02:14:32.118Z,0.00
2018-06-22T02:15:32.110Z,0.00
2018-06-22T02:16:32.100Z,0.00
2018-06-22T02:17:32.092Z,0.00
2018-06-22T02:18:32.084Z,0.00
2018-06-22T02:19:32.071Z,0.00
2018-06-22T02:20:32.063Z,0.00
2018-06-22T02:21:32.054Z,0.00
2018-06-22T02:22:32.042Z,0.00
2018-06-22T02:23:32.033Z,0.00
2018-06-22T02:24:32.024Z,0.00
2018-06-22T02:25:32.220Z,0.00
2018-06-22T02:26:32.003Z,0.00
2018-06-22T02:27:31.995Z,0.00
2018-06-22T02:28:31.985Z,0.00
2018-06-22T02:29:31.976Z,0.00
2018-06-22T02:30:31.965Z,0.00
2018-06-22T02:31:31.957Z,0.00
2018-06-22T02:32:31.946Z,0.00
2018-06-22T02:33:31.937Z,0.00
2018-06-22T02:34:31.926Z,0.00
2018-06-22T02:35:31.917Z,0.00
2018-06-22T02:36:31.910Z,0.00
2018-06-22T02:37:31.898Z,0.00
2018-06-22T02:38:31.894Z,0.00
2018-06-22T02:39:31.878Z,0.00
2018-06-22T02:40:31.875Z,0.00
2018-06-22T02:41:31.860Z,0.00
2018-06-22T02:42:31.849Z,0.00
2018-06-22T02:43:31.842Z,0.00
2018-06-22T02:44:31.829Z,0.00
2018-06-22T02:45:31.825Z,0.00
2018-06-22T02:46:31.811Z,0.00
2018-06-22T02:47:31.801Z,0.00
2018-06-22T02:48:31.796Z,0.00
2018-06-22T02:49:31.785Z,0.00
2018-06-22T02:50:31.773Z,0.00
2018-06-22T02:51:31.768Z,0.00
2018-06-22T02:52:31.753Z,0.00
2018-06-22T02:53:31.748Z,0.00
2018-06-22T02:54:31.733Z,0.00
2018-06-22T02:55:31.724Z,0.00
2018-06-22T02:56:31.714Z,0.00
2018-06-22T02:57:31.727Z,0.00
2018-06-22T02:58:31.699Z,0.00
2018-06-22T02:59:31.685Z,0.00
2018-06-22T03:00:31.677Z,0.00
2018-06-22T03:01:31.667Z,0.00
2018-06-22T03:02:31.657Z,0.00
2018-06-22T03:03:31.648Z,0.00
2018-06-22T03:04:31.638Z,0.00
2018-06-22T03:05:31.632Z,0.00
2018-06-22T03:06:31.618Z,0.00
2018-06-22T03:07:31.615Z,0.00
2018-06-22T03:08:31.599Z,0.00
2018-06-22T03:09:31.601Z,0.00
2018-06-22T03:10:31.583Z,0.00
2018-06-22T03:11:31.570Z,0.00
2018-06-22T03:12:31.563Z,0.00
2018-06-22T03:13:31.552Z,0.00
2018-06-22T03:14:31.543Z,5.63
2018-06-22T03:15:31.532Z,5.63
2018-06-22T03:16:31.523Z,5.63
2018-06-22T03:17:31.514Z,5.63
2018-06-22T03:18:31.502Z,5.63
2018-06-22T03:19:31.497Z,5.63
2018-06-22T03:20:31.488Z,5.63
2018-06-22T03:21:31.475Z,5.63
2018-06-22T03:22:31.466Z,5.63
2018-06-22T03:23:31.455Z,11.25
2018-06-22T03:24:31.449Z,11.25
2018-06-22T03:25:31.439Z,11.25
2018-06-22T03:26:31.436Z,11.25
2018-06-22T03:27:31.420Z,11.25
2018-06-22T03:28:31.406Z,11.25
2018-06-22T03:29:31.407Z,16.88
2018-06-22T03:30:31.388Z,16.88
2018-06-22T03:31:31.382Z,16.88
2018-06-22T03:32:31.382Z,16.88
2018-06-22T03:33:31.360Z,16.88
2018-06-22T03:34:31.347Z,16.88
2018-06-22T03:35:31.340Z,22.50
2018-06-22T03:36:31.341Z,22.50
2018-06-22T03:37:31.329Z,22.50
2018-06-22T03:38:31.320Z,22.50
2018-06-22T03:39:31.355Z,22.50
2018-06-22T03:40:31.295Z,28.13
2018-06-22T03:41:31.280Z,28.13
2018-06-22T03:42:31.279Z,28.13
2018-06-22T03:43:31.260Z,28.13
2018-06-22T03:44:31.264Z,33.75
2018-06-22T03:45:31.242Z,33.75
2018-06-22T03:46:31.230Z,33.75
2018-06-22T03:47:31.230Z,33.75
2018-06-22T03:48:31.211Z,39.38
2018-06-22T03:49:31.201Z,39.38
2018-06-22T03:50:31.191Z,39.38
2018-06-22T03:51:31.181Z,39.38
2018-06-22T03:52:31.178Z,45.00
2018-06-22T03:53:31.163Z,45.00
2018-06-22T03:54:31.154Z,45.00
2018-06-22T03:55:31.141Z,45.00
2018-06-22T03:56:31.133Z,50.63
2018-06-22T03:57:31.122Z,50.63
2018-06-22T03:58:31.111Z,50.63
2018-06-22T03:59:31.112Z,50.63
2018-06-22T04:00:31.103Z,56.25
2018-06-22T04:01:31.094Z,56.25
2018-06-22T04:02:31.072Z,56.25
2018-06-22T04:03:31.065Z,61.88
2018-06-22T04:04:31.053Z,73.13
2018-06-22T04:05:31.043Z,67.50
2018-06-22T04:06:31.041Z,61.88
2018-06-22T04:07:31.024Z,61.88
2018-06-22T04:08:31.024Z,67.50
2018-06-22T04:09:31.003Z,67.50
2018-06-22T04:10:30.996Z,67.50
2018-06-22T04:11:30.984Z,67.50
2018-06-22T04:12:30.980Z,67.50
2018-06-22T04:13:30.964Z,73.13
2018-06-22T04:14:30.953Z,73.13
2018-06-22T04:15:30.948Z,73.13
2018-06-22T04:16:30.947Z,78.75
2018-06-22T04:17:30.925Z,78.75
2018-06-22T04:18:30.914Z,78.75
2018-06-22T04:19:30.910Z,78.75
2018-06-22T04:20:30.907Z,84.38
2018-06-22T04:21:30.897Z,84.38
2018-06-22T04:22:30.876Z,84.38
2018-06-22T04:23:30.865Z,84.38
2018-06-22T04:24:30.959Z,90.00
2018-06-22T04:25:30.847Z,106.88
2018-06-22T04:26:30.845Z,112.50
2018-06-22T04:27:30.825Z,123.75
2018-06-22T04:28:30.816Z,112.50
2018-06-22T04:29:31.013Z,95.63
2018-06-22T04:30:30.797Z,90.00
2018-06-22T04:31:30.788Z,95.63
2018-06-22T04:32:30.778Z,101.25
2018-06-22T04:33:30.767Z,95.63
2018-06-22T04:34:30.757Z,95.63
2018-06-22T04:35:30.747Z,106.88
2018-06-22T04:36:30.738Z,140.63
2018-06-22T04:37:30.734Z,140.63
2018-06-22T04:38:30.718Z,157.50
2018-06-22T04:39:30.713Z,146.25
2018-06-22T04:40:30.709Z,135.00
2018-06-22T04:41:30.707Z,135.00
2018-06-22T04:42:30.679Z,118.13
2018-06-22T04:43:30.673Z,112.50
2018-06-22T04:44:30.660Z,118.13
2018-06-22T04:45:30.652Z,118.13
2018-06-22T04:46:30.642Z,118.13
2018-06-22T04:47:30.632Z,118.13
2018-06-22T04:48:30.824Z,118.13
2018-06-22T04:49:30.614Z,118.13
2018-06-22T04:50:30.605Z,123.75
2018-06-22T04:51:30.598Z,123.75
2018-06-22T04:52:30.586Z,123.75
2018-06-22T04:53:30.575Z,123.75
2018-06-22T04:54:30.566Z,140.63
2018-06-22T04:55:30.556Z,168.75
2018-06-22T04:56:30.548Z,135.00
2018-06-22T04:57:30.552Z,135.00
2018-06-22T04:58:30.537Z,135.00
2018-06-22T04:59:30.528Z,140.63
2018-06-22T05:00:30.509Z,135.00
2018-06-22T05:01:30.503Z,140.63
2018-06-22T05:02:30.493Z,140.63
2018-06-22T05:03:30.535Z,140.63
2018-06-22T05:04:30.472Z,140.63
2018-06-22T05:05:30.474Z,140.63
2018-06-22T05:06:30.463Z,140.63
2018-06-22T05:07:30.443Z,140.63
2018-06-22T05:08:30.434Z,140.63
2018-06-22T05:09:30.424Z,140.63
2018-06-22T05:10:30.414Z,146.25
2018-06-22T05:11:30.405Z,146.25
2018-06-22T05:12:30.401Z,146.25
2018-06-22T05:13:30.387Z,146.25
2018-06-22T05:14:30.384Z,146.25
2018-06-22T05:15:30.375Z,151.88
2018-06-22T05:16:30.372Z,146.25
2018-06-22T05:17:30.563Z,151.88
2018-06-22T05:18:30.343Z,157.50
2018-06-22T05:19:30.340Z,157.50
2018-06-22T05:20:30.322Z,213.75
2018-06-22T05:21:30.326Z,196.88
2018-06-22T05:22:30.305Z,208.13
2018-06-22T05:23:30.303Z,174.38
2018-06-22T05:24:30.283Z,180.00
2018-06-22T05:25:30.279Z,202.50
2018-06-22T05:26:30.268Z,225.00
2018-06-22T05:27:30.258Z,185.63
2018-06-22T05:28:30.247Z,163.13
2018-06-22T05:29:30.245Z,168.75
2018-06-22T05:30:30.230Z,185.63
2018-06-22T05:31:30.220Z,180.00
2018-06-22T05:32:30.212Z,168.75
2018-06-22T05:33:30.201Z,185.63
2018-06-22T05:34:30.191Z,196.88
2018-06-22T05:35:30.194Z,247.50
2018-06-22T05:36:30.180Z,292.50
2018-06-22T05:37:30.168Z,270.00
2018-06-22T05:38:30.155Z,286.88
2018-06-22T05:39:30.158Z,213.75
2018-06-22T05:40:30.136Z,208.13
2018-06-22T05:41:30.197Z,196.88
2018-06-22T05:42:30.134Z,202.50
2018-06-22T05:43:30.110Z,230.63
2018-06-22T05:44:30.102Z,230.63
2018-06-22T05:45:30.106Z,281.25
2018-06-22T05:46:30.083Z,309.38
2018-06-22T05:47:30.073Z,360.00
2018-06-22T05:48:30.064Z,388.13
2018-06-22T05:49:30.057Z,360.00
2018-06-22T05:50:30.048Z,337.50
2018-06-22T05:51:30.042Z,309.38
2018-06-22T05:52:30.030Z,343.13
2018-06-22T05:53:30.021Z,365.63
2018-06-22T05:54:30.012Z,348.75
2018-06-22T05:55:30.004Z,348.75
2018-06-22T05:56:30.001Z,455.63
2018-06-22T05:57:29.992Z,405.00
2018-06-22T05:58:29.981Z,360.00
2018-06-22T05:59:29.970Z,337.50
2018-06-22T06:00:29.970Z,376.88
2018-06-22T06:01:29.964Z,500.63
2018-06-22T06:02:29.947Z,405.00
2018-06-22T06:03:30.139Z,365.63
2018-06-22T06:04:29.936Z,326.25
2018-06-22T06:05:29.919Z,393.75
2018-06-22T06:06:29.917Z,483.75
2018-06-22T06:07:29.901Z,551.25
2018-06-22T06:08:29.897Z,540.00
2018-06-22T06:09:29.889Z,534.38
2018-06-22T06:10:29.879Z,568.13
2018-06-22T06:11:29.870Z,601.88
2018-06-22T06:12:29.900Z,601.88
2018-06-22T06:13:29.862Z,630.00
2018-06-22T06:14:29.854Z,652.50
2018-06-22T06:15:29.864Z,517.50
2018-06-22T06:17:29.824Z,506.25
2018-06-22T06:18:29.832Z,523.13
2018-06-22T06:19:29.816Z,511.88
2018-06-22T06:20:29.800Z,585.00
2018-06-22T06:21:29.804Z,635.63
2018-06-22T06:22:29.786Z,585.00
2018-06-22T06:23:29.776Z,438.75
2018-06-22T06:24:29.771Z,433.13
2018-06-22T06:25:29.771Z,450.00
2018-06-22T06:26:29.755Z,416.25
2018-06-22T06:27:29.747Z,455.63
2018-06-22T06:28:29.744Z,517.50
2018-06-22T06:29:29.744Z,545.63
2018-06-22T06:30:29.725Z,528.75
2018-06-22T06:31:29.920Z,500.63
2018-06-22T06:32:29.724Z,478.13
2018-06-22T06:33:29.705Z,511.88
2018-06-22T06:34:29.697Z,489.38
2018-06-22T06:35:29.702Z,393.75
2018-06-22T06:36:29.686Z,376.88
2018-06-22T06:37:29.677Z,382.50
2018-06-22T06:38:29.680Z,371.25
2018-06-22T06:39:29.659Z,382.50
2018-06-22T06:40:29.654Z,528.75
2018-06-22T06:41:29.646Z,630.00
2018-06-22T06:42:29.637Z,663.75
2018-06-22T06:43:29.836Z,607.50
2018-06-22T06:44:29.825Z,596.25
2018-06-22T06:45:29.626Z,630.00
2018-06-22T06:46:29.612Z,624.38
2018-06-22T06:47:29.610Z,601.88
2018-06-22T06:48:29.593Z,579.38
2018-06-22T06:49:29.610Z,630.00
2018-06-22T06:50:29.578Z,708.75
2018-06-22T06:51:29.584Z,765.00
2018-06-22T06:52:29.564Z,877.50
2018-06-22T06:53:29.571Z,950.63
2018-06-22T06:54:29.550Z,855.00
2018-06-22T06:55:29.548Z,855.00
2018-06-22T06:56:29.541Z,736.88
2018-06-22T06:58:29.533Z,540.00
2018-06-22T06:59:29.522Z,472.50
2018-06-22T07:00:29.515Z,382.50
2018-06-22T07:01:29.516Z,360.00
2018-06-22T07:02:29.547Z,320.63
2018-06-22T07:03:29.491Z,393.75
2018-06-22T07:04:29.486Z,590.63
2018-06-22T07:05:29.479Z,607.50
2018-06-22T07:06:29.471Z,601.88
2018-06-22T07:07:29.465Z,990.00
2018-06-22T07:08:29.535Z,1074.38
2018-06-22T07:09:29.452Z,770.63
2018-06-22T07:10:29.452Z,596.25
2018-06-22T07:11:29.439Z,624.38
2018-06-22T07:12:29.443Z,680.63
2018-06-22T07:14:29.451Z,905.63
2018-06-22T07:15:29.416Z,950.63
2018-06-22T07:16:29.407Z,1158.75
2018-06-22T07:17:29.606Z,888.75
2018-06-22T07:18:29.399Z,568.13
2018-06-22T07:19:29.401Z,466.88
2018-06-22T07:20:29.598Z,292.50
2018-06-22T07:21:29.394Z,348.75
2018-06-22T07:22:29.376Z,444.38
2018-06-22T07:23:29.437Z,365.63
2018-06-22T07:24:29.361Z,292.50
2018-06-22T07:25:29.354Z,236.25
2018-06-22T07:26:29.357Z,230.63
2018-06-22T07:27:29.343Z,236.25
2018-06-22T07:28:29.376Z,213.75
2018-06-22T07:29:29.331Z,196.88
2018-06-22T07:30:29.526Z,180.00
2018-06-22T07:31:29.328Z,241.88
2018-06-22T07:32:29.311Z,286.88
2018-06-22T07:33:29.307Z,230.63
2018-06-22T07:34:29.305Z,202.50
2018-06-22T07:35:29.300Z,225.00
2018-06-22T07:36:29.286Z,208.13
2018-06-22T07:37:29.285Z,191.25
2018-06-22T07:38:29.267Z,168.75
2018-06-22T07:39:29.262Z,213.75
2018-06-22T07:40:29.255Z,236.25
2018-06-22T07:41:29.258Z,315.00
2018-06-22T07:42:29.248Z,405.00
2018-06-22T07:43:29.231Z,478.13
2018-06-22T07:44:29.237Z,933.75
2018-06-22T07:45:29.232Z,2851.88
2018-06-22T07:46:29.215Z,1816.88
2018-06-22T07:47:29.209Z,2761.88
2018-06-22T07:48:29.211Z,843.75
2018-06-22T07:49:29.195Z,708.75
2018-06-22T07:50:29.187Z,686.25
2018-06-22T07:51:29.195Z,675.00
2018-06-22T07:52:29.179Z,607.50
2018-06-22T07:53:29.171Z,523.13
2018-06-22T07:54:29.166Z,444.38
2018-06-22T07:55:29.170Z,376.88
2018-06-22T07:56:29.154Z,320.63
2018-06-22T07:57:29.152Z,286.88
2018-06-22T07:58:29.141Z,303.75
2018-06-22T07:59:29.137Z,309.38
2018-06-22T08:00:29.145Z,309.38
2018-06-22T08:01:29.123Z,343.13
2018-06-22T08:02:29.117Z,371.25
2018-06-22T08:03:29.111Z,388.13
2018-06-22T08:04:29.108Z,410.63
2018-06-22T08:05:29.102Z,421.88
2018-06-22T08:06:29.099Z,450.00
2018-06-22T08:07:29.089Z,483.75
2018-06-22T08:08:29.079Z,461.25
2018-06-22T08:09:29.074Z,466.88
2018-06-22T08:10:29.067Z,523.13
2018-06-22T08:11:29.062Z,528.75
2018-06-22T08:12:29.057Z,540.00
2018-06-22T08:13:29.049Z,545.63
2018-06-22T08:14:29.039Z,568.13
2018-06-22T08:15:29.033Z,562.50
2018-06-22T08:16:29.035Z,607.50
2018-06-22T08:17:29.029Z,646.88
2018-06-22T08:18:29.015Z,742.50
2018-06-22T08:19:29.210Z,731.25
2018-06-22T08:20:29.003Z,742.50
2018-06-22T08:21:28.996Z,838.13
2018-06-22T08:22:28.989Z,945.00
2018-06-22T08:23:29.040Z,855.00
2018-06-22T08:24:28.981Z,720.00
2018-06-22T08:25:28.968Z,635.63
2018-06-22T08:26:28.962Z,585.00
2018-06-22T08:27:28.959Z,556.88
2018-06-22T08:28:28.950Z,545.63
2018-06-22T08:29:28.948Z,556.88
2018-06-22T08:30:28.937Z,573.75
2018-06-22T08:31:28.934Z,573.75
2018-06-22T08:32:29.130Z,556.88
2018-06-22T08:33:28.920Z,511.88
2018-06-22T08:34:28.913Z,433.13
2018-06-22T08:35:28.908Z,382.50
2018-06-22T08:36:28.902Z,343.13
2018-06-22T08:37:28.899Z,303.75
2018-06-22T08:38:28.888Z,281.25
2018-06-22T08:39:28.887Z,275.63
2018-06-22T08:40:28.881Z,275.63
2018-06-22T08:41:28.888Z,264.38
2018-06-22T08:42:28.864Z,264.38
2018-06-22T08:43:28.857Z,241.88
2018-06-22T08:44:28.853Z,230.63
2018-06-22T08:45:28.852Z,219.38
2018-06-22T08:46:28.837Z,258.75
2018-06-22T08:47:28.836Z,337.50
2018-06-22T08:48:28.823Z,455.63
2018-06-22T08:49:28.817Z,540.00
2018-06-22T08:51:28.807Z,573.75
2018-06-22T08:52:28.798Z,573.75
2018-06-22T08:53:28.798Z,551.25
2018-06-22T08:54:28.784Z,551.25
2018-06-22T08:55:28.781Z,568.13
2018-06-22T08:56:28.978Z,585.00
2018-06-22T08:57:28.765Z,596.25
2018-06-22T08:58:28.761Z,646.88
2018-06-22T08:59:28.753Z,725.63
2018-06-22T09:00:28.747Z,781.88
2018-06-22T09:01:28.740Z,781.88
2018-06-22T09:02:28.735Z,793.13
2018-06-22T09:03:28.729Z,905.63
2018-06-22T09:04:28.723Z,933.75
2018-06-22T09:05:28.717Z,922.50
2018-06-22T09:06:28.716Z,911.25
2018-06-22T09:07:28.709Z,883.13
2018-06-22T09:08:28.699Z,832.50
2018-06-22T09:09:28.693Z,776.25
2018-06-22T09:10:28.687Z,720.00
2018-06-22T09:11:28.682Z,680.63
2018-06-22T09:12:28.681Z,613.13
2018-06-22T09:13:28.677Z,573.75
2018-06-22T09:14:28.706Z,568.13
2018-06-22T09:15:28.666Z,596.25
2018-06-22T09:16:28.657Z,596.25
2018-06-22T09:17:28.655Z,613.13
2018-06-22T09:18:28.642Z,635.63
2018-06-22T09:19:28.636Z,663.75
2018-06-22T09:20:28.636Z,663.75
2018-06-22T09:21:28.630Z,596.25
2018-06-22T09:22:28.620Z,573.75
2018-06-22T09:23:28.617Z,663.75
2018-06-22T09:24:28.609Z,641.25
2018-06-22T09:25:28.604Z,630.00
2018-06-22T09:26:28.597Z,624.38
2018-06-22T09:27:28.595Z,675.00
2018-06-22T09:28:28.792Z,646.88
2018-06-22T09:29:28.580Z,601.88
2018-06-22T09:30:28.574Z,568.13
2018-06-22T09:31:28.602Z,556.88
2018-06-22T09:32:28.568Z,534.38
2018-06-22T09:33:28.561Z,534.38
2018-06-22T09:34:28.552Z,607.50
2018-06-22T09:35:28.546Z,742.50
2018-06-22T09:36:28.544Z,883.13
2018-06-22T09:37:28.543Z,866.25
2018-06-22T09:38:28.529Z,1035.00
2018-06-22T09:39:28.524Z,1243.13
2018-06-22T09:40:28.520Z,1327.50
2018-06-22T09:41:28.514Z,1530.00
2018-06-22T09:42:28.520Z,1389.38
2018-06-22T09:43:28.507Z,1310.63
2018-06-22T09:44:28.706Z,1299.38
2018-06-22T09:45:28.495Z,1468.13
2018-06-22T09:46:28.490Z,1721.25
2018-06-22T09:47:28.489Z,1406.25
2018-06-22T09:48:28.517Z,1276.88
2018-06-22T09:49:28.480Z,1198.13
2018-06-22T09:50:28.475Z,1096.88
2018-06-22T09:51:28.473Z,1102.50
2018-06-22T09:52:28.472Z,1209.38
2018-06-22T09:53:28.469Z,1209.38
2018-06-22T09:54:28.460Z,1181.25
2018-06-22T09:55:28.460Z,1158.75
2018-06-22T09:56:28.454Z,1119.38
2018-06-22T09:57:28.451Z,1018.13
2018-06-22T09:58:28.447Z,950.63
2018-06-22T09:59:28.443Z,995.63
2018-06-22T10:00:28.446Z,1001.25
2018-06-22T10:01:28.436Z,1080.00
2018-06-22T10:02:28.432Z,1136.25
2018-06-22T10:03:28.429Z,1068.75
2018-06-22T10:04:28.426Z,1091.25
2018-06-22T10:05:28.430Z,1141.88
2018-06-22T10:06:28.419Z,1203.75
2018-06-22T10:07:28.420Z,1170.00
2018-06-22T10:08:28.412Z,1023.75
2018-06-22T10:09:28.408Z,905.63
2018-06-22T10:10:28.404Z,860.63
2018-06-22T10:11:28.412Z,804.38
2018-06-22T10:12:28.397Z,697.50
2018-06-22T10:13:28.407Z,585.00
2018-06-22T10:14:28.388Z,545.63
2018-06-22T10:15:28.390Z,506.25
2018-06-22T10:16:28.384Z,511.88
2018-06-22T10:17:28.382Z,540.00
2018-06-22T10:18:28.379Z,523.13
2018-06-22T10:19:28.368Z,472.50
2018-06-22T10:20:28.569Z,450.00
2018-06-22T10:21:28.562Z,511.88
2018-06-22T10:22:28.362Z,579.38
2018-06-22T10:23:28.349Z,523.13
2018-06-22T10:24:28.548Z,500.63
2018-06-22T10:25:28.346Z,427.50
2018-06-22T10:26:28.339Z,489.38
2018-06-22T10:27:28.334Z,506.25
2018-06-22T10:28:28.326Z,579.38
2018-06-22T10:29:28.324Z,686.25
2018-06-22T10:30:28.315Z,697.50
2018-06-22T10:31:28.315Z,680.63
2018-06-22T10:32:28.305Z,703.13
2018-06-22T10:33:28.301Z,815.63
2018-06-22T10:34:28.295Z,770.63
2018-06-22T10:35:28.292Z,618.75
2018-06-22T10:36:28.284Z,680.63
2018-06-22T10:37:28.279Z,838.13
2018-06-22T10:38:28.274Z,860.63
2018-06-22T10:39:28.272Z,731.25
2018-06-22T10:40:28.264Z,877.50
2018-06-22T10:41:28.263Z,1243.13
2018-06-22T10:42:28.254Z,1873.13
2018-06-22T10:43:28.248Z,2435.63
2018-06-22T10:44:28.249Z,2463.75
2018-06-22T10:45:28.243Z,2576.25
2018-06-22T10:46:28.237Z,2671.88
2018-06-22T10:47:28.237Z,1906.88
2018-06-22T10:48:28.232Z,1687.50
2018-06-22T10:49:28.239Z,1541.25
2018-06-22T10:50:28.232Z,1535.63
2018-06-22T10:51:28.231Z,1546.88
2018-06-22T10:52:28.285Z,1496.25
2018-06-22T10:53:28.223Z,1456.88
2018-06-22T10:54:28.223Z,1507.50
2018-06-22T10:55:28.220Z,1501.88
2018-06-22T10:56:28.217Z,1451.25
2018-06-22T10:57:28.216Z,1355.63
2018-06-22T10:58:28.214Z,1231.88
2018-06-22T10:59:28.212Z,1153.13
2018-06-22T11:00:28.214Z,1136.25
2018-06-22T11:01:28.214Z,1125.00
2018-06-22T11:02:28.208Z,1136.25
2018-06-22T11:03:28.408Z,1164.38
2018-06-22T11:04:28.211Z,1141.88
2018-06-22T11:05:28.206Z,1063.13
2018-06-22T11:06:28.200Z,1006.88
2018-06-22T11:07:28.201Z,978.75
2018-06-22T11:08:28.196Z,961.88
2018-06-22T11:09:28.201Z,1012.50
2018-06-22T11:10:28.193Z,1220.63
2018-06-22T11:11:28.195Z,1501.88
2018-06-22T11:12:28.187Z,1665.00
2018-06-22T11:13:28.243Z,1575.00
2018-06-22T11:14:28.182Z,1338.75
2018-06-22T11:15:28.188Z,1119.38
2018-06-22T11:16:28.181Z,1046.25
2018-06-22T11:17:28.381Z,849.38
2018-06-22T11:18:28.174Z,691.88
2018-06-22T11:19:28.172Z,601.88
2018-06-22T11:20:28.171Z,624.38
2018-06-22T11:21:28.168Z,753.75
2018-06-22T11:22:28.162Z,973.13
2018-06-22T11:23:28.160Z,911.25
2018-06-22T11:24:28.220Z,843.75
2018-06-22T11:25:28.155Z,967.50
2018-06-22T11:26:28.153Z,978.75
2018-06-22T11:27:28.180Z,945.00
2018-06-22T11:28:28.145Z,894.38
2018-06-22T11:29:28.143Z,770.63
2018-06-22T11:30:28.138Z,658.13
2018-06-22T11:31:28.138Z,680.63
2018-06-22T11:32:28.138Z,663.75
2018-06-22T11:33:28.131Z,585.00
2018-06-22T11:34:28.123Z,618.75
2018-06-22T11:35:28.119Z,635.63
2018-06-22T11:36:28.185Z,680.63
2018-06-22T11:37:28.118Z,686.25
2018-06-22T11:38:28.111Z,720.00
2018-06-22T11:39:28.107Z,703.13
2018-06-22T11:40:28.101Z,787.50
2018-06-22T11:41:28.101Z,714.38
2018-06-22T11:42:28.091Z,708.75
2018-06-22T11:43:28.086Z,720.00
2018-06-22T11:44:28.089Z,776.25
2018-06-22T11:45:28.080Z,742.50
2018-06-22T11:46:28.074Z,686.25
2018-06-22T11:47:28.071Z,663.75
2018-06-22T11:48:28.068Z,590.63
2018-06-22T11:49:28.064Z,489.38
2018-06-22T11:50:28.057Z,433.13
2018-06-22T11:51:28.053Z,551.25
2018-06-22T11:52:28.048Z,708.75
2018-06-22T11:53:28.045Z,995.63
2018-06-22T11:54:28.047Z,1316.25
2018-06-22T11:55:28.036Z,2070.00
2018-06-22T11:56:28.031Z,1912.50
2018-06-22T11:57:28.028Z,1411.88
2018-06-22T11:58:28.023Z,1507.50
2018-06-22T11:59:28.024Z,1456.88
2018-06-22T12:00:28.020Z,1406.25
2018-06-22T12:01:28.017Z,1254.38
2018-06-22T12:03:28.012Z,1164.38
2018-06-22T12:04:28.010Z,832.50
2018-06-22T12:05:28.005Z,601.88
2018-06-22T12:06:28.204Z,472.50
2018-06-22T12:07:27.996Z,450.00
2018-06-22T12:08:27.996Z,421.88
2018-06-22T12:09:27.990Z,382.50
2018-06-22T12:10:27.985Z,382.50
2018-06-22T12:11:28.017Z,382.50
2018-06-22T12:12:27.979Z,438.75
2018-06-22T12:13:27.975Z,461.25
2018-06-22T12:14:27.976Z,461.25
2018-06-22T12:15:27.967Z,523.13
2018-06-22T12:16:27.962Z,635.63
2018-06-22T12:17:27.958Z,855.00
2018-06-22T12:18:27.956Z,1113.75
2018-06-22T12:19:27.948Z,1305.00
2018-06-22T12:20:27.943Z,1299.38
2018-06-22T12:21:27.945Z,1316.25
2018-06-22T12:22:27.933Z,1299.38
2018-06-22T12:23:27.928Z,1136.25
2018-06-22T12:24:27.924Z,1035.00
2018-06-22T12:25:27.919Z,1001.25
2018-06-22T12:26:28.118Z,1018.13
2018-06-22T12:27:27.911Z,1051.88
2018-06-22T12:28:27.904Z,1074.38
2018-06-22T12:29:27.903Z,1068.75
2018-06-22T12:30:27.895Z,1012.50
2018-06-22T12:31:27.894Z,990.00
2018-06-22T12:32:27.886Z,905.63
2018-06-22T12:33:27.882Z,832.50
2018-06-22T12:34:28.082Z,804.38
2018-06-22T12:35:27.875Z,849.38
2018-06-22T12:36:27.868Z,922.50
2018-06-22T12:37:27.870Z,978.75
2018-06-22T12:38:27.858Z,961.88
2018-06-22T12:39:27.853Z,939.38
2018-06-22T12:40:27.849Z,984.38
2018-06-22T12:41:27.847Z,1023.75
2018-06-22T12:42:27.846Z,1018.13
2018-06-22T12:43:27.835Z,1012.50
2018-06-22T12:44:27.834Z,945.00
2018-06-22T12:45:27.826Z,877.50
2018-06-22T12:46:27.821Z,916.88